createdAt,value
2019-04-23T00:00:29.408Z,0.00
2019-04-23T00:01:35.372Z,0.00
2019-04-23T00:02:30.140Z,0.00
2019-04-23T00:03:36.007Z,0.00
2019-04-23T00:04:28.397Z,0.00
2019-04-23T00:05:48.558Z,0.00
2019-04-23T00:06:32.208Z,0.00
2019-04-23T00:07:44.307Z,0.00
2019-04-23T00:08:41.996Z,0.00
2019-04-23T00:09:36.852Z,0.00
2019-04-23T00:10:53.742Z,0.00
2019-04-23T00:11:32.534Z,0.00
2019-04-23T00:12:47.848Z,0.00
2019-04-23T00:13:39.325Z,0.00
2019-04-23T00:14:38.512Z,0.00
2019-04-23T00:15:30.428Z,0.00
2019-04-23T00:16:39.458Z,0.00
2019-04-23T00:17:40.234Z,0.00
2019-04-23T00:18:42.652Z,0.00
2019-04-23T00:19:31.154Z,0.00
2019-04-23T00:20:34.875Z,0.00
2019-04-23T00:21:33.367Z,0.00
2019-04-23T00:23:49.807Z,0.00
2019-04-23T00:24:56.790Z,0.00
2019-04-23T00:26:50.459Z,0.00
2019-04-23T00:27:38.869Z,0.00
2019-04-23T00:28:35.906Z,0.00
2019-04-23T00:29:37.058Z,0.00
2019-04-23T00:30:43.220Z,0.00
2019-04-23T00:31:41.204Z,0.00
2019-04-23T00:32:35.055Z,0.00
2019-04-23T00:33:34.604Z,0.00
2019-04-23T00:34:42.658Z,0.00
2019-04-23T00:35:38.660Z,0.00
2019-04-23T00:37:37.392Z,0.00
2019-04-23T00:38:38.405Z,0.00
2019-04-23T00:39:41.002Z,0.00
2019-04-23T00:40:40.385Z,0.00
2019-04-23T00:41:36.624Z,0.00
2019-04-23T00:43:00.655Z,0.00
2019-04-23T00:43:34.252Z,0.00
2019-04-23T00:44:40.067Z,0.00
2019-04-23T00:45:40.721Z,0.00
2019-04-23T00:46:34.955Z,0.00
2019-04-23T00:47:51.388Z,0.00
2019-04-23T00:50:04.331Z,0.00
2019-04-23T00:50:44.980Z,0.00
2019-04-23T00:51:38.243Z,0.00
2019-04-23T00:52:50.691Z,0.00
2019-04-23T00:53:34.226Z,0.00
2019-04-23T00:54:46.840Z,0.00
2019-04-23T00:55:35.598Z,0.00
2019-04-23T00:56:57.028Z,0.00
2019-04-23T00:59:41.141Z,0.00
2019-04-23T01:01:47.752Z,0.00
2019-04-23T01:02:37.290Z,0.00
2019-04-23T01:03:37.454Z,0.00
2019-04-23T01:04:41.798Z,0.00
2019-04-23T01:05:37.718Z,0.00
2019-04-23T01:06:39.349Z,0.00
2019-04-23T01:07:40.337Z,0.00
2019-04-23T01:08:36.871Z,0.00
2019-04-23T01:09:42.263Z,0.00
2019-04-23T01:10:34.900Z,0.00
2019-04-23T01:11:34.211Z,0.00
2019-04-23T01:14:38.581Z,0.00
2019-04-23T01:15:39.111Z,0.00
2019-04-23T01:16:38.114Z,0.00
2019-04-23T01:17:39.946Z,0.00
2019-04-23T01:18:49.093Z,0.00
2019-04-23T01:19:37.486Z,0.00
2019-04-23T01:20:36.571Z,0.00
2019-04-23T01:21:18.029Z,0.00
2019-04-23T01:22:16.927Z,0.00
2019-04-23T01:23:20.652Z,0.00
2019-04-23T01:24:20.131Z,0.00
2019-04-23T01:25:24.773Z,0.00
2019-04-23T01:26:39.079Z,0.00
2019-04-23T01:27:57.232Z,0.00
2019-04-23T01:28:50.278Z,0.00
2019-04-23T01:29:42.510Z,0.00
2019-04-23T01:30:40.507Z,0.00
2019-04-23T01:31:43.091Z,0.00
2019-04-23T01:32:44.048Z,0.00
2019-04-23T01:33:44.696Z,0.00
2019-04-23T01:34:51.958Z,0.00
2019-04-23T01:35:42.494Z,0.00
2019-04-23T01:36:37.231Z,0.00
2019-04-23T01:37:41.088Z,0.00
2019-04-23T01:38:45.541Z,0.00
2019-04-23T01:39:43.892Z,0.00
2019-04-23T01:40:40.611Z,0.00
2019-04-23T01:41:47.823Z,0.00
2019-04-23T01:43:44.351Z,0.00
2019-04-23T01:45:35.916Z,0.00
2019-04-23T01:47:45.373Z,0.00
2019-04-23T01:48:48.190Z,0.00
2019-04-23T01:49:56.532Z,0.00
2019-04-23T01:50:48.375Z,0.00
2019-04-23T01:51:46.801Z,0.00
2019-04-23T01:52:52.165Z,0.00
2019-04-23T01:53:45.489Z,0.00
2019-04-23T01:54:45.549Z,0.00
2019-04-23T01:55:46.999Z,0.00
2019-04-23T01:56:38.584Z,0.00
2019-04-23T01:58:51.874Z,0.00
2019-04-23T01:59:49.772Z,0.00
2019-04-23T02:00:49.423Z,0.00
2019-04-23T02:01:51.865Z,0.00
2019-04-23T02:02:49.600Z,0.00
2019-04-23T02:03:52.247Z,0.00
2019-04-23T02:04:46.117Z,0.00
2019-04-23T02:06:45.460Z,0.00
2019-04-23T02:07:53.711Z,0.00
2019-04-23T02:08:48.519Z,0.00
2019-04-23T02:09:53.188Z,0.00
2019-04-23T02:10:51.253Z,0.00
2019-04-23T02:11:43.829Z,0.00
2019-04-23T02:12:47.719Z,0.00
2019-04-23T02:13:48.987Z,0.00
2019-04-23T02:14:51.767Z,0.00
2019-04-23T02:16:44.107Z,0.00
2019-04-23T02:17:52.114Z,0.00
2019-04-23T02:18:49.318Z,0.00
2019-04-23T02:20:48.078Z,0.00
2019-04-23T02:21:54.821Z,0.00
2019-04-23T02:23:44.023Z,0.00
2019-04-23T02:24:47.696Z,0.00
2019-04-23T02:26:43.453Z,0.00
2019-04-23T02:27:52.248Z,0.00
2019-04-23T02:30:20.701Z,0.00
2019-04-23T02:31:58.193Z,0.00
2019-04-23T02:32:59.463Z,0.00
2019-04-23T02:35:02.341Z,0.00
2019-04-23T02:38:00.323Z,0.00
2019-04-23T02:40:01.021Z,0.00
2019-04-23T02:43:59.292Z,0.00
2019-04-23T02:44:56.346Z,0.00
2019-04-23T02:46:59.330Z,0.00
2019-04-23T02:48:01.511Z,0.00
2019-04-23T02:48:58.272Z,0.00
2019-04-23T02:50:33.632Z,0.00
2019-04-23T02:52:57.793Z,0.00
2019-04-23T02:56:51.478Z,0.00
2019-04-23T02:58:01.868Z,0.00
2019-04-23T03:02:12.009Z,0.00
2019-04-23T03:04:02.360Z,0.00
2019-04-23T03:05:57.264Z,0.00
2019-04-23T03:07:16.032Z,0.00
2019-04-23T03:07:54.237Z,0.00
2019-04-23T03:12:00.698Z,0.00
2019-04-23T03:13:19.800Z,0.00
2019-04-23T03:15:05.101Z,0.00
2019-04-23T03:17:03.053Z,0.00
2019-04-23T03:18:12.203Z,0.00
2019-04-23T03:19:58.578Z,0.00
2019-04-23T03:21:11.636Z,0.00
2019-04-23T03:26:00.191Z,0.00
2019-04-23T03:28:11.714Z,0.00
2019-04-23T03:29:04.297Z,0.00
2019-04-23T03:32:30.841Z,0.00
2019-04-23T03:37:55.774Z,0.00
2019-04-23T03:41:09.125Z,0.00
2019-04-23T03:42:24.415Z,0.00
2019-04-23T03:43:47.086Z,0.00
2019-04-23T03:46:12.141Z,0.00
2019-04-23T03:46:51.415Z,0.00
2019-04-23T03:48:00.804Z,0.00
2019-04-23T03:48:51.204Z,0.00
2019-04-23T03:50:58.206Z,0.00
2019-04-23T03:52:01.223Z,0.00
2019-04-23T03:52:57.639Z,0.00
2019-04-23T03:54:05.840Z,0.00
2019-04-23T03:54:49.046Z,0.00
2019-04-23T03:56:05.600Z,0.00
2019-04-23T03:57:52.602Z,0.00
2019-04-23T03:58:58.188Z,0.00
2019-04-23T04:00:04.021Z,0.00
2019-04-23T04:01:01.401Z,0.00
2019-04-23T04:04:49.858Z,0.00
2019-04-23T04:09:08.517Z,0.00
2019-04-23T04:09:53.875Z,0.00
2019-04-23T04:12:00.982Z,0.00
2019-04-23T04:12:56.899Z,0.00
2019-04-23T04:16:07.464Z,5.63
2019-04-23T04:16:59.862Z,5.63
2019-04-23T04:18:11.676Z,5.63
2019-04-23T04:21:08.750Z,5.63
2019-04-23T04:22:15.104Z,5.63
2019-04-23T04:23:07.887Z,5.63
2019-04-23T04:25:03.256Z,11.25
2019-04-23T04:26:00.288Z,11.25
2019-04-23T04:29:01.244Z,11.25
2019-04-23T04:30:01.646Z,16.88
2019-04-23T04:30:53.746Z,16.88
2019-04-23T04:36:10.297Z,22.50
2019-04-23T04:37:27.650Z,22.50
2019-04-23T04:38:05.725Z,28.13
2019-04-23T04:40:23.259Z,28.13
2019-04-23T04:41:04.286Z,33.75
2019-04-23T04:41:58.827Z,33.75
2019-04-23T04:46:59.181Z,39.38
2019-04-23T04:47:53.986Z,45.00
2019-04-23T04:51:07.983Z,45.00
2019-04-23T04:55:03.279Z,56.25
2019-04-23T04:56:14.281Z,56.25
2019-04-23T04:57:04.987Z,56.25
2019-04-23T04:57:58.148Z,61.88
2019-04-23T05:00:45.653Z,67.50
2019-04-23T05:02:09.669Z,67.50
2019-04-23T05:04:02.421Z,73.13
2019-04-23T05:07:22.880Z,84.38
2019-04-23T05:09:00.753Z,84.38
2019-04-23T05:10:08.797Z,90.00
2019-04-23T05:11:10.862Z,90.00
2019-04-23T05:13:21.370Z,95.63
2019-04-23T05:14:01.352Z,95.63
2019-04-23T05:15:02.680Z,101.25
2019-04-23T05:16:02.916Z,101.25
2019-04-23T05:17:19.829Z,101.25
2019-04-23T05:18:08.393Z,101.25
2019-04-23T05:19:20.071Z,106.88
2019-04-23T05:19:58.952Z,106.88
2019-04-23T05:21:08.107Z,112.50
2019-04-23T05:23:09.153Z,123.75
2019-04-23T05:24:06.685Z,118.13
2019-04-23T05:24:52.812Z,123.75
2019-04-23T05:26:02.801Z,123.75
2019-04-23T05:26:57.957Z,135.00
2019-04-23T05:28:07.697Z,129.38
2019-04-23T05:29:01.725Z,140.63
2019-04-23T05:30:02.213Z,135.00
2019-04-23T05:31:02.311Z,146.25
2019-04-23T05:31:53.530Z,140.63
2019-04-23T05:33:08.827Z,151.88
2019-04-23T05:34:02.965Z,146.25
2019-04-23T05:34:56.130Z,151.88
2019-04-23T05:36:12.786Z,151.88
2019-04-23T05:37:00.171Z,157.50
2019-04-23T05:38:08.856Z,157.50
2019-04-23T05:40:00.438Z,163.13
2019-04-23T05:41:03.714Z,174.38
2019-04-23T05:42:13.997Z,174.38
2019-04-23T05:42:58.726Z,174.38
2019-04-23T05:44:05.215Z,174.38
2019-04-23T05:45:00.827Z,180.00
2019-04-23T05:45:56.876Z,185.63
2019-04-23T05:47:06.312Z,185.63
2019-04-23T05:48:09.704Z,191.25
2019-04-23T05:49:04.556Z,191.25
2019-04-23T05:50:00.430Z,191.25
2019-04-23T05:51:09.642Z,196.88
2019-04-23T05:52:59.757Z,196.88
2019-04-23T05:53:58.397Z,202.50
2019-04-23T05:55:02.678Z,213.75
2019-04-23T05:56:01.973Z,208.13
2019-04-23T05:56:55.076Z,213.75
2019-04-23T05:58:06.435Z,213.75
2019-04-23T05:59:11.562Z,219.38
2019-04-23T06:00:04.226Z,219.38
2019-04-23T06:01:11.409Z,225.00
2019-04-23T06:01:58.627Z,225.00
2019-04-23T06:03:06.345Z,230.63
2019-04-23T06:04:57.342Z,236.25
2019-04-23T06:06:02.969Z,241.88
2019-04-23T06:08:03.443Z,247.50
2019-04-23T06:08:58.628Z,253.13
2019-04-23T06:09:59.455Z,253.13
2019-04-23T06:11:02.325Z,258.75
2019-04-23T06:12:59.681Z,264.38
2019-04-23T06:14:05.175Z,270.00
2019-04-23T06:15:01.652Z,270.00
2019-04-23T06:15:57.705Z,275.63
2019-04-23T06:17:03.179Z,281.25
2019-04-23T06:20:06.689Z,286.88
2019-04-23T06:21:15.646Z,292.50
2019-04-23T06:22:07.476Z,292.50
2019-04-23T06:23:06.388Z,292.50
2019-04-23T06:24:13.114Z,298.13
2019-04-23T06:25:03.357Z,303.75
2019-04-23T06:26:19.773Z,303.75
2019-04-23T06:28:05.094Z,315.00
2019-04-23T06:29:05.017Z,315.00
2019-04-23T06:30:23.896Z,320.63
2019-04-23T06:31:04.996Z,326.25
2019-04-23T06:32:14.927Z,331.88
2019-04-23T06:32:59.644Z,331.88
2019-04-23T06:34:04.196Z,337.50
2019-04-23T06:35:01.494Z,343.13
2019-04-23T06:36:05.497Z,348.75
2019-04-23T06:37:06.870Z,348.75
2019-04-23T06:38:26.137Z,354.38
2019-04-23T06:40:00.387Z,360.00
2019-04-23T06:41:00.799Z,365.63
2019-04-23T06:42:00.454Z,365.63
2019-04-23T06:43:05.361Z,371.25
2019-04-23T06:44:05.823Z,376.88
2019-04-23T06:45:02.954Z,376.88
2019-04-23T06:45:59.080Z,382.50
2019-04-23T06:47:03.711Z,388.13
2019-04-23T06:48:09.179Z,388.13
2019-04-23T06:49:00.849Z,393.75
2019-04-23T06:50:00.131Z,393.75
2019-04-23T06:51:04.254Z,393.75
2019-04-23T06:52:08.632Z,399.38
2019-04-23T06:52:57.211Z,399.38
2019-04-23T06:55:01.155Z,405.00
2019-04-23T06:56:03.867Z,410.63
2019-04-23T06:57:14.604Z,410.63
2019-04-23T06:58:04.490Z,416.25
2019-04-23T06:59:06.368Z,421.88
2019-04-23T07:00:02.398Z,421.88
2019-04-23T07:01:02.079Z,427.50
2019-04-23T07:02:06.658Z,427.50
2019-04-23T07:03:10.828Z,433.13
2019-04-23T07:04:05.467Z,433.13
2019-04-23T07:07:24.141Z,444.38
2019-04-23T07:08:02.788Z,450.00
2019-04-23T07:09:10.724Z,450.00
2019-04-23T07:09:59.377Z,455.63
2019-04-23T07:11:07.890Z,455.63
2019-04-23T07:11:55.535Z,466.88
2019-04-23T07:13:08.889Z,461.25
2019-04-23T07:15:04.472Z,472.50
2019-04-23T07:16:03.189Z,472.50
2019-04-23T07:17:04.189Z,478.13
2019-04-23T07:18:05.806Z,483.75
2019-04-23T07:20:00.242Z,489.38
2019-04-23T07:21:09.453Z,489.38
2019-04-23T07:22:16.400Z,495.00
2019-04-23T07:23:10.195Z,495.00
2019-04-23T07:24:05.211Z,495.00
2019-04-23T07:26:08.075Z,500.63
2019-04-23T07:27:03.310Z,506.25
2019-04-23T07:28:06.890Z,506.25
2019-04-23T07:29:08.971Z,511.88
2019-04-23T07:30:08.684Z,506.25
2019-04-23T07:31:07.345Z,511.88
2019-04-23T07:33:04.524Z,511.88
2019-04-23T07:34:20.428Z,523.13
2019-04-23T07:35:07.232Z,517.50
2019-04-23T07:36:08.580Z,523.13
2019-04-23T07:37:06.950Z,523.13
2019-04-23T07:38:16.363Z,523.13
2019-04-23T07:39:11.638Z,528.75
2019-04-23T07:41:15.327Z,528.75
2019-04-23T07:42:08.108Z,534.38
2019-04-23T07:44:16.669Z,534.38
2019-04-23T07:46:10.547Z,540.00
2019-04-23T07:47:16.193Z,545.63
2019-04-23T07:48:10.854Z,545.63
2019-04-23T07:49:04.618Z,545.63
2019-04-23T07:50:19.092Z,551.25
2019-04-23T07:51:03.339Z,551.25
2019-04-23T07:54:08.064Z,556.88
2019-04-23T07:55:16.326Z,562.50
2019-04-23T07:56:07.502Z,562.50
2019-04-23T07:57:13.488Z,562.50
2019-04-23T07:58:14.294Z,562.50
2019-04-23T07:59:16.049Z,562.50
2019-04-23T08:00:29.707Z,568.13
2019-04-23T08:01:11.264Z,568.13
2019-04-23T08:02:15.915Z,568.13
2019-04-23T08:03:13.560Z,568.13
2019-04-23T08:04:30.188Z,568.13
2019-04-23T08:05:21.595Z,568.13
2019-04-23T08:06:04.230Z,568.13
2019-04-23T08:07:12.834Z,573.75
2019-04-23T08:08:07.286Z,573.75
2019-04-23T08:09:08.549Z,573.75
2019-04-23T08:10:10.394Z,573.75
2019-04-23T08:11:30.471Z,573.75
2019-04-23T08:12:13.690Z,579.38
2019-04-23T08:13:10.336Z,579.38
2019-04-23T08:14:05.172Z,579.38
2019-04-23T08:15:13.082Z,585.00
2019-04-23T08:16:19.152Z,585.00
2019-04-23T08:17:07.395Z,585.00
2019-04-23T08:18:08.893Z,590.63
2019-04-23T08:19:24.555Z,590.63
2019-04-23T08:20:07.860Z,590.63
2019-04-23T08:21:10.448Z,596.25
2019-04-23T08:22:09.174Z,596.25
2019-04-23T08:23:12.532Z,596.25
2019-04-23T08:24:17.011Z,596.25
2019-04-23T08:25:27.249Z,601.88
2019-04-23T08:26:13.598Z,601.88
2019-04-23T08:27:16.629Z,601.88
2019-04-23T08:28:13.551Z,601.88
2019-04-23T08:29:12.280Z,596.25
2019-04-23T08:30:04.532Z,596.25
2019-04-23T08:34:18.642Z,590.63
2019-04-23T08:36:12.239Z,590.63
2019-04-23T08:37:08.902Z,590.63
2019-04-23T08:39:11.539Z,590.63
2019-04-23T08:40:20.176Z,596.25
2019-04-23T08:41:20.644Z,596.25
2019-04-23T08:42:27.055Z,601.88
2019-04-23T08:44:15.582Z,607.50
2019-04-23T08:45:18.709Z,607.50
2019-04-23T08:46:13.990Z,607.50
2019-04-23T08:47:10.099Z,601.88
2019-04-23T08:49:13.977Z,601.88
2019-04-23T08:50:06.812Z,596.25
2019-04-23T08:51:22.325Z,596.25
2019-04-23T08:52:11.791Z,596.25
2019-04-23T08:53:26.369Z,596.25
2019-04-23T08:54:13.300Z,596.25
2019-04-23T08:55:08.675Z,601.88
2019-04-23T08:56:10.639Z,607.50
2019-04-23T08:57:22.706Z,607.50
2019-04-23T08:58:14.101Z,601.88
2019-04-23T08:59:22.896Z,601.88
2019-04-23T09:00:07.827Z,607.50
2019-04-23T09:01:10.830Z,607.50
2019-04-23T09:02:25.564Z,613.13
2019-04-23T09:04:10.614Z,618.75
2019-04-23T09:05:20.802Z,613.13
2019-04-23T09:06:25.844Z,613.13
2019-04-23T09:07:16.719Z,613.13
2019-04-23T09:09:13.233Z,613.13
2019-04-23T09:10:15.345Z,613.13
2019-04-23T09:12:18.866Z,613.13
2019-04-23T09:13:35.291Z,607.50
2019-04-23T09:14:05.210Z,601.88
2019-04-23T09:15:16.810Z,596.25
2019-04-23T09:16:09.011Z,590.63
2019-04-23T09:17:17.201Z,585.00
2019-04-23T09:19:16.036Z,573.75
2019-04-23T09:22:25.141Z,568.13
2019-04-23T09:23:13.306Z,562.50
2019-04-23T09:24:09.591Z,562.50
2019-04-23T09:25:20.300Z,556.88
2019-04-23T09:26:22.742Z,562.50
2019-04-23T09:27:18.143Z,568.13
2019-04-23T09:28:24.017Z,568.13
2019-04-23T09:29:14.795Z,573.75
2019-04-23T09:30:12.600Z,579.38
2019-04-23T09:32:22.422Z,596.25
2019-04-23T09:33:14.063Z,607.50
2019-04-23T09:34:11.439Z,607.50
2019-04-23T09:35:20.229Z,613.13
2019-04-23T09:36:13.579Z,618.75
2019-04-23T09:37:18.843Z,624.38
2019-04-23T09:38:11.705Z,630.00
2019-04-23T09:39:12.897Z,630.00
2019-04-23T09:40:27.597Z,635.63
2019-04-23T09:42:16.156Z,646.88
2019-04-23T09:43:14.145Z,652.50
2019-04-23T09:44:39.118Z,663.75
2019-04-23T09:45:12.996Z,669.38
2019-04-23T09:46:17.435Z,675.00
2019-04-23T09:47:16.024Z,675.00
2019-04-23T09:48:04.937Z,680.63
2019-04-23T09:49:36.207Z,686.25
2019-04-23T09:50:15.675Z,686.25
2019-04-23T09:51:17.903Z,691.88
2019-04-23T09:52:14.603Z,697.50
2019-04-23T09:55:24.486Z,708.75
2019-04-23T09:56:14.847Z,708.75
2019-04-23T09:57:14.060Z,708.75
2019-04-23T09:58:11.868Z,708.75
2019-04-23T09:59:32.341Z,708.75
2019-04-23T10:00:23.074Z,708.75
2019-04-23T10:01:20.912Z,714.38
2019-04-23T10:02:06.620Z,714.38
2019-04-23T10:03:02.402Z,714.38
2019-04-23T10:04:00.048Z,720.00
2019-04-23T10:04:59.567Z,725.63
2019-04-23T10:05:57.152Z,725.63
2019-04-23T10:07:03.249Z,725.63
2019-04-23T10:07:58.631Z,731.25
2019-04-23T10:08:51.921Z,731.25
2019-04-23T10:09:48.367Z,725.63
2019-04-23T10:10:47.286Z,725.63
2019-04-23T10:11:47.330Z,725.63
2019-04-23T10:12:48.213Z,725.63
2019-04-23T10:13:48.382Z,731.25
2019-04-23T10:14:59.267Z,731.25
2019-04-23T10:15:49.666Z,731.25
2019-04-23T10:16:49.242Z,742.50
2019-04-23T10:17:47.692Z,748.13
2019-04-23T10:18:49.123Z,748.13
2019-04-23T10:19:48.669Z,742.50
2019-04-23T10:20:48.737Z,748.13
2019-04-23T10:21:49.190Z,759.38
2019-04-23T10:22:48.321Z,770.63
2019-04-23T10:23:49.564Z,793.13
2019-04-23T10:24:48.792Z,815.63
2019-04-23T10:25:48.189Z,888.75
2019-04-23T10:26:48.253Z,1074.38
2019-04-23T10:27:55.075Z,1260.00
2019-04-23T10:28:49.808Z,1333.13
2019-04-23T10:29:49.849Z,1372.50
2019-04-23T10:30:49.016Z,1440.00
2019-04-23T10:31:49.460Z,1513.13
2019-04-23T10:32:49.492Z,1518.75
2019-04-23T10:33:50.284Z,1558.13
2019-04-23T10:34:57.832Z,1496.25
2019-04-23T10:35:55.109Z,1310.63
2019-04-23T10:36:49.525Z,1366.88
2019-04-23T10:37:56.855Z,1254.38
2019-04-23T10:38:55.885Z,1181.25
2019-04-23T10:39:54.855Z,1130.63
2019-04-23T10:40:50.158Z,1040.63
2019-04-23T10:41:50.969Z,995.63
2019-04-23T10:42:51.491Z,894.38
2019-04-23T10:43:52.368Z,894.38
2019-04-23T10:44:52.117Z,950.63
2019-04-23T10:46:07.975Z,1023.75
2019-04-23T10:47:15.174Z,1096.88
2019-04-23T10:49:32.135Z,1051.88
2019-04-23T10:50:17.274Z,1063.13
2019-04-23T10:51:25.054Z,1074.38
2019-04-23T10:54:26.294Z,1046.25
2019-04-23T10:55:11.861Z,1057.50
2019-04-23T10:56:20.733Z,1113.75
2019-04-23T10:57:33.911Z,1147.50
2019-04-23T10:59:19.850Z,1237.50
2019-04-23T11:00:22.314Z,1243.13
2019-04-23T11:01:20.856Z,1333.13
2019-04-23T11:02:32.876Z,1355.63
2019-04-23T11:03:38.167Z,1378.13
2019-04-23T11:04:38.505Z,1490.63
2019-04-23T11:05:35.530Z,1642.50
2019-04-23T11:06:28.771Z,1642.50
2019-04-23T11:07:28.558Z,1693.13
2019-04-23T11:08:18.291Z,1861.88
2019-04-23T11:09:36.594Z,1884.38
2019-04-23T11:10:16.088Z,1856.25
2019-04-23T11:11:24.041Z,1845.00
2019-04-23T11:12:32.492Z,1811.25
2019-04-23T11:13:25.635Z,1805.63
2019-04-23T11:14:25.586Z,1755.00
2019-04-23T11:15:32.465Z,1850.63
2019-04-23T11:17:31.967Z,1777.50
2019-04-23T11:18:34.103Z,1783.13
2019-04-23T11:19:27.646Z,1794.38
2019-04-23T11:20:35.371Z,1738.13
2019-04-23T11:22:40.275Z,1715.63
2019-04-23T11:23:17.030Z,1676.25
2019-04-23T11:24:30.490Z,1681.88
2019-04-23T11:25:33.106Z,1760.63
2019-04-23T11:26:26.424Z,1648.13
2019-04-23T11:27:25.973Z,1597.50
2019-04-23T11:28:25.792Z,1591.88
2019-04-23T11:29:27.972Z,1586.25
2019-04-23T11:31:31.561Z,1563.75
2019-04-23T11:32:42.855Z,1614.38
2019-04-23T11:33:19.894Z,1608.75
2019-04-23T11:34:46.006Z,1552.50
2019-04-23T11:37:37.967Z,1563.75
2019-04-23T11:39:21.697Z,1558.13
2019-04-23T11:40:31.317Z,1625.63
2019-04-23T11:41:31.007Z,1648.13
2019-04-23T11:43:34.237Z,1693.13
2019-04-23T11:44:26.957Z,1833.75
2019-04-23T11:45:32.510Z,1878.75
2019-04-23T11:46:39.901Z,1996.88
2019-04-23T11:48:00.451Z,2013.75
2019-04-23T11:49:51.049Z,1980.00
2019-04-23T11:50:28.117Z,2013.75
2019-04-23T11:52:30.090Z,2064.38
2019-04-23T11:53:26.063Z,2148.75
2019-04-23T11:54:27.766Z,2154.38
2019-04-23T11:55:35.789Z,2148.75
2019-04-23T11:56:49.211Z,2053.13
2019-04-23T11:59:31.651Z,1985.63
2019-04-23T12:00:26.211Z,1878.75
2019-04-23T12:02:23.449Z,1816.88
2019-04-23T12:03:19.398Z,1743.75
2019-04-23T12:05:26.587Z,1693.13
2019-04-23T12:07:22.831Z,1890.00
2019-04-23T12:08:36.512Z,2064.38
2019-04-23T12:09:35.288Z,1833.75
2019-04-23T12:10:29.069Z,1940.63
2019-04-23T12:11:48.976Z,1968.75
2019-04-23T12:12:25.081Z,1890.00
2019-04-23T12:13:32.185Z,1738.13
2019-04-23T12:14:37.177Z,1597.50
2019-04-23T12:16:28.504Z,1670.63
2019-04-23T12:20:28.919Z,1665.00
2019-04-23T12:21:32.419Z,1687.50
2019-04-23T12:24:53.617Z,1743.75
2019-04-23T12:25:27.894Z,1777.50
2019-04-23T12:26:40.777Z,1749.38
2019-04-23T12:28:36.570Z,1726.88
2019-04-23T12:29:33.905Z,1755.00
2019-04-23T12:31:29.264Z,1766.25
2019-04-23T12:33:39.126Z,1822.50
2019-04-23T12:34:30.053Z,1811.25
2019-04-23T12:35:25.691Z,1839.38
2019-04-23T12:36:28.199Z,1850.63
2019-04-23T12:37:33.388Z,1912.50
2019-04-23T12:39:27.116Z,2103.75
2019-04-23T12:41:29.859Z,2143.13
2019-04-23T12:43:27.480Z,2221.88
2019-04-23T12:44:30.654Z,2418.75
2019-04-23T12:45:31.712Z,2514.38
2019-04-23T12:46:29.670Z,2536.88
2019-04-23T12:47:43.651Z,2525.63
2019-04-23T12:48:33.731Z,2531.25
2019-04-23T12:49:47.952Z,2508.75
2019-04-23T12:51:34.997Z,2261.25
2019-04-23T12:52:36.000Z,2053.13
2019-04-23T12:53:30.626Z,1940.63
2019-04-23T12:54:47.078Z,1878.75
2019-04-23T12:55:41.910Z,1957.50
2019-04-23T12:56:21.927Z,2030.63
2019-04-23T12:57:29.666Z,2070.00
2019-04-23T12:58:26.721Z,2086.88
2019-04-23T12:59:28.653Z,2047.50
2019-04-23T13:00:27.135Z,2075.63
2019-04-23T13:01:37.791Z,2058.75
2019-04-23T13:02:41.181Z,2103.75
2019-04-23T13:04:24.872Z,2216.25
2019-04-23T13:06:20.424Z,2289.38
2019-04-23T13:07:36.729Z,2390.63
2019-04-23T13:08:33.242Z,2379.38
2019-04-23T13:09:42.919Z,2475.00
2019-04-23T13:10:30.053Z,2497.50
2019-04-23T13:11:32.994Z,2581.88
2019-04-23T13:12:38.185Z,2525.63
2019-04-23T13:13:27.986Z,2593.13
2019-04-23T13:14:34.757Z,2559.38
2019-04-23T13:17:42.581Z,2655.00
2019-04-23T13:19:40.156Z,2705.63
2019-04-23T13:20:28.041Z,2683.13
2019-04-23T13:21:52.182Z,2694.38
2019-04-23T13:22:37.431Z,2671.88
2019-04-23T13:24:26.479Z,2660.63
2019-04-23T13:25:34.813Z,2610.00
2019-04-23T13:26:27.978Z,2593.13
2019-04-23T13:27:38.638Z,2536.88
2019-04-23T13:28:28.127Z,2480.63
2019-04-23T13:29:41.017Z,2413.13
2019-04-23T13:30:44.730Z,2323.13
2019-04-23T13:31:20.449Z,2205.00
2019-04-23T13:32:31.371Z,2092.50
2019-04-23T13:33:35.494Z,1873.13
2019-04-23T13:34:37.613Z,1856.25
2019-04-23T13:36:32.470Z,1687.50
2019-04-23T13:37:40.456Z,1648.13
2019-04-23T13:38:36.312Z,1614.38
2019-04-23T13:39:34.813Z,1535.63
2019-04-23T13:40:47.522Z,1535.63
2019-04-23T13:41:30.189Z,1558.13
2019-04-23T13:43:36.256Z,1541.25
2019-04-23T13:44:34.370Z,1524.38
2019-04-23T13:46:32.936Z,1456.88
2019-04-23T13:47:41.431Z,1440.00
2019-04-23T13:48:19.930Z,1451.25
2019-04-23T13:49:37.754Z,1496.25
2019-04-23T13:55:00.027Z,1462.50
2019-04-23T13:55:26.681Z,1501.88
2019-04-23T13:56:39.261Z,1546.88
2019-04-23T13:58:02.313Z,1490.63
2019-04-23T13:58:28.361Z,1451.25
2019-04-23T13:59:42.906Z,1378.13
2019-04-23T14:01:35.445Z,1243.13
2019-04-23T14:02:40.385Z,1237.50
2019-04-23T14:03:35.765Z,1288.13
2019-04-23T14:04:41.690Z,1243.13
2019-04-23T14:05:33.104Z,1231.88
2019-04-23T14:07:44.135Z,1350.00
2019-04-23T14:10:44.860Z,1366.88
2019-04-23T14:12:43.717Z,1428.75
2019-04-23T14:14:42.129Z,1541.25
2019-04-23T14:15:40.543Z,1518.75
2019-04-23T14:16:39.702Z,1546.88
2019-04-23T14:18:53.892Z,1620.00
2019-04-23T14:19:28.092Z,1597.50
2019-04-23T14:21:35.281Z,1507.50
2019-04-23T14:22:51.242Z,1518.75
2019-04-23T14:23:59.447Z,1479.38
2019-04-23T14:24:38.231Z,1485.00
2019-04-23T14:25:40.093Z,1518.75
2019-04-23T14:26:35.186Z,1530.00
2019-04-23T14:28:37.353Z,1614.38
2019-04-23T14:29:41.418Z,1659.38
2019-04-23T14:30:38.537Z,1721.25
2019-04-23T14:31:28.524Z,1721.25
2019-04-23T14:33:46.049Z,1715.63
2019-04-23T14:34:40.845Z,1710.00
2019-04-23T14:35:32.529Z,1670.63
2019-04-23T14:36:39.694Z,1631.25
2019-04-23T14:37:38.193Z,1603.13
2019-04-23T14:39:31.739Z,1603.13
2019-04-23T14:40:43.167Z,1591.88
2019-04-23T14:41:26.401Z,1558.13
2019-04-23T14:42:49.782Z,1518.75
2019-04-23T14:44:36.548Z,1445.63
2019-04-23T14:46:41.411Z,1434.38
2019-04-23T14:47:38.022Z,1389.38
2019-04-23T14:48:30.717Z,1378.13
2019-04-23T14:52:39.061Z,1248.75
2019-04-23T14:53:30.352Z,1192.50
2019-04-23T14:54:52.499Z,1158.75
2019-04-23T14:56:35.049Z,1130.63
2019-04-23T14:57:45.173Z,1141.88
2019-04-23T14:58:57.561Z,1175.63
2019-04-23T14:59:30.727Z,1198.13
2019-04-23T15:00:46.469Z,1181.25
2019-04-23T15:01:35.512Z,1186.88
2019-04-23T15:02:44.928Z,1181.25
2019-04-23T15:03:40.346Z,1215.00
2019-04-23T15:04:39.362Z,1198.13
2019-04-23T15:05:45.974Z,1198.13
2019-04-23T15:06:46.832Z,1203.75
2019-04-23T15:07:36.972Z,1175.63
2019-04-23T15:08:50.082Z,1158.75
2019-04-23T15:09:52.789Z,1108.13
2019-04-23T15:10:49.195Z,1080.00
2019-04-23T15:11:35.412Z,1051.88
2019-04-23T15:12:40.359Z,1018.13
2019-04-23T15:13:38.581Z,945.00
2019-04-23T15:14:46.349Z,922.50
2019-04-23T15:15:31.868Z,900.00
2019-04-23T15:16:39.787Z,888.75
2019-04-23T15:17:34.679Z,843.75
2019-04-23T15:18:45.196Z,832.50
2019-04-23T15:20:39.270Z,871.88
2019-04-23T15:22:42.411Z,804.38
2019-04-23T15:24:38.447Z,759.38
2019-04-23T15:25:53.152Z,748.13
2019-04-23T15:26:58.870Z,855.00
2019-04-23T15:27:45.675Z,697.50
2019-04-23T15:28:14.208Z,658.13
2019-04-23T15:29:26.731Z,658.13
2019-04-23T15:30:38.759Z,663.75
2019-04-23T15:32:47.161Z,663.75
2019-04-23T15:33:44.955Z,635.63
2019-04-23T15:34:33.005Z,613.13
2019-04-23T15:35:53.357Z,601.88
2019-04-23T15:37:01.069Z,601.88
2019-04-23T15:38:43.452Z,590.63
2019-04-23T15:40:36.814Z,585.00
2019-04-23T15:42:00.829Z,579.38
2019-04-23T15:42:43.930Z,568.13
2019-04-23T15:43:46.798Z,562.50
2019-04-23T15:44:32.355Z,556.88
2019-04-23T15:45:42.373Z,556.88
2019-04-23T15:47:39.851Z,568.13
2019-04-23T15:48:46.440Z,573.75
2019-04-23T15:49:37.691Z,579.38
2019-04-23T15:50:37.203Z,579.38
2019-04-23T15:51:48.022Z,579.38
2019-04-23T15:52:44.307Z,585.00
2019-04-23T15:53:34.837Z,585.00
2019-04-23T15:54:56.792Z,585.00
2019-04-23T15:55:44.172Z,596.25
2019-04-23T15:58:48.569Z,630.00
2019-04-23T15:59:44.144Z,635.63
2019-04-23T16:00:39.727Z,646.88
2019-04-23T16:02:10.489Z,630.00